sensor_id;sensor_type;location;lat;lon;timestamp;pressure;altitude;pressure_sealevel;temperature;humidity
34696;BME280;20918;51.138;17.370;2023-06-19T00:02:16;100101.19;;;12.69;77.05
34696;BME280;20918;51.138;17.370;2023-06-19T00:05:16;100099.41;;;12.66;77.42
34696;BME280;20918;51.138;17.370;2023-06-19T00:08:16;100101.91;;;12.65;77.38
34696;BME280;20918;51.138;17.370;2023-06-19T00:11:17;100099.48;;;12.64;76.85
34696;BME280;20918;51.138;17.370;2023-06-19T00:14:18;100098.18;;;12.61;76.67
34696;BME280;20918;51.138;17.370;2023-06-19T00:17:18;100096.95;;;12.59;76.62
34696;BME280;20918;51.138;17.370;2023-06-19T00:20:19;100095.48;;;12.61;76.81
34696;BME280;20918;51.138;17.370;2023-06-19T00:23:19;100099.27;;;12.62;76.54
34696;BME280;20918;51.138;17.370;2023-06-19T00:26:20;100097.75;;;12.62;76.20
34696;BME280;20918;51.138;17.370;2023-06-19T00:29:23;100097.14;;;12.62;76.08
34696;BME280;20918;51.138;17.370;2023-06-19T00:32:28;100098.21;;;12.57;76.07
34696;BME280;20918;51.138;17.370;2023-06-19T00:35:30;100104.24;;;12.53;76.06
34696;BME280;20918;51.138;17.370;2023-06-19T00:38:31;100104.26;;;12.51;76.65
34696;BME280;20918;51.138;17.370;2023-06-19T00:41:31;100103.52;;;12.48;77.21
34696;BME280;20918;51.138;17.370;2023-06-19T00:44:32;100105.34;;;12.45;77.19
34696;BME280;20918;51.138;17.370;2023-06-19T00:47:33;100103.50;;;12.38;76.91
34696;BME280;20918;51.138;17.370;2023-06-19T00:50:33;100099.83;;;12.31;77.43
34696;BME280;20918;51.138;17.370;2023-06-19T00:53:35;100098.16;;;12.29;77.44
34696;BME280;20918;51.138;17.370;2023-06-19T00:56:37;100094.80;;;12.23;77.62
34696;BME280;20918;51.138;17.370;2023-06-19T00:59:37;100091.73;;;12.16;77.87
34696;BME280;20918;51.138;17.370;2023-06-19T01:02:38;100090.48;;;12.09;78.23
34696;BME280;20918;51.138;17.370;2023-06-19T01:05:39;100087.05;;;12.02;78.61
34696;BME280;20918;51.138;17.370;2023-06-19T01:08:49;100085.65;;;12.02;78.62
34696;BME280;20918;51.138;17.370;2023-06-19T01:11:52;100088.66;;;11.99;78.50
34696;BME280;20918;51.138;17.370;2023-06-19T01:14:58;100088.61;;;11.95;78.47
34696;BME280;20918;51.138;17.370;2023-06-19T01:17:59;100089.69;;;11.95;78.16
34696;BME280;20918;51.138;17.370;2023-06-19T01:21:10;100087.16;;;11.96;78.00
34696;BME280;20918;51.138;17.370;2023-06-19T01:24:11;100089.14;;;11.97;78.05
34696;BME280;20918;51.138;17.370;2023-06-19T01:27:13;100085.06;;;11.94;78.16
34696;BME280;20918;51.138;17.370;2023-06-19T01:30:13;100084.83;;;11.82;78.36
34696;BME280;20918;51.138;17.370;2023-06-19T01:36:18;100076.23;;;11.73;78.83
34696;BME280;20918;51.138;17.370;2023-06-19T01:39:19;100074.17;;;11.71;78.60
34696;BME280;20918;51.138;17.370;2023-06-19T01:42:20;100077.51;;;11.65;78.48
34696;BME280;20918;51.138;17.370;2023-06-19T01:45:21;100082.92;;;11.64;78.37
34696;BME280;20918;51.138;17.370;2023-06-19T01:48:21;100084.05;;;11.63;78.30
34696;BME280;20918;51.138;17.370;2023-06-19T01:51:21;100085.33;;;11.61;78.04
34696;BME280;20918;51.138;17.370;2023-06-19T01:54:22;100088.06;;;11.56;78.37
34696;BME280;20918;51.138;17.370;2023-06-19T01:57:22;100092.44;;;11.55;78.26
34696;BME280;20918;51.138;17.370;2023-06-19T02:00:23;100090.00;;;11.56;78.26
34696;BME280;20918;51.138;17.370;2023-06-19T02:03:23;100094.44;;;11.53;78.15
34696;BME280;20918;51.138;17.370;2023-06-19T02:06:24;100097.20;;;11.52;78.46
34696;BME280;20918;51.138;17.370;2023-06-19T02:09:24;100096.74;;;11.48;78.35
34696;BME280;20918;51.138;17.370;2023-06-19T02:12:24;100101.36;;;11.50;78.70
34696;BME280;20918;51.138;17.370;2023-06-19T02:15:25;100099.61;;;11.48;79.25
34696;BME280;20918;51.138;17.370;2023-06-19T02:18:25;100097.41;;;11.46;79.31
34696;BME280;20918;51.138;17.370;2023-06-19T02:21:26;100096.09;;;11.35;79.61
34696;BME280;20918;51.138;17.370;2023-06-19T02:24:26;100097.95;;;11.23;79.64
34696;BME280;20918;51.138;17.370;2023-06-19T02:27:27;100100.48;;;11.12;79.60
34696;BME280;20918;51.138;17.370;2023-06-19T02:30:27;100102.26;;;11.02;80.19
34696;BME280;20918;51.138;17.370;2023-06-19T02:33:28;100102.38;;;10.93;80.32
34696;BME280;20918;51.138;17.370;2023-06-19T02:36:29;100099.61;;;10.88;80.72
34696;BME280;20918;51.138;17.370;2023-06-19T02:39:30;100098.70;;;10.88;80.96
34696;BME280;20918;51.138;17.370;2023-06-19T02:42:31;100097.82;;;10.90;81.09
34696;BME280;20918;51.138;17.370;2023-06-19T02:45:31;100100.92;;;10.92;81.41
34696;BME280;20918;51.138;17.370;2023-06-19T02:48:31;100101.17;;;10.94;81.60
34696;BME280;20918;51.138;17.370;2023-06-19T02:51:33;100105.96;;;10.97;81.57
34696;BME280;20918;51.138;17.370;2023-06-19T02:54:33;100103.67;;;11.01;81.84
34696;BME280;20918;51.138;17.370;2023-06-19T02:57:34;100101.04;;;11.02;82.03
34696;BME280;20918;51.138;17.370;2023-06-19T03:00:37;100100.61;;;11.01;81.95
34696;BME280;20918;51.138;17.370;2023-06-19T03:03:37;100099.13;;;10.97;82.07
34696;BME280;20918;51.138;17.370;2023-06-19T03:06:38;100100.73;;;10.93;82.20
34696;BME280;20918;51.138;17.370;2023-06-19T03:09:40;100103.70;;;10.97;82.42
34696;BME280;20918;51.138;17.370;2023-06-19T03:12:41;100108.39;;;11.06;81.95
34696;BME280;20918;51.138;17.370;2023-06-19T03:15:41;100108.03;;;11.19;82.64
34696;BME280;20918;51.138;17.370;2023-06-19T03:18:42;100107.98;;;11.40;82.85
34696;BME280;20918;51.138;17.370;2023-06-19T03:21:44;100102.88;;;11.60;82.63
34696;BME280;20918;51.138;17.370;2023-06-19T03:24:46;100100.80;;;11.77;82.60
34696;BME280;20918;51.138;17.370;2023-06-19T03:27:54;100097.87;;;11.93;82.59
34696;BME280;20918;51.138;17.370;2023-06-19T03:30:56;100094.52;;;12.07;82.52
34696;BME280;20918;51.138;17.370;2023-06-19T03:33:57;100091.39;;;12.26;82.57
34696;BME280;20918;51.138;17.370;2023-06-19T03:36:58;100090.30;;;12.57;82.60
34696;BME280;20918;51.138;17.370;2023-06-19T03:39:59;100094.42;;;12.88;82.16
34696;BME280;20918;51.138;17.370;2023-06-19T03:43:05;100095.02;;;13.19;81.73
34696;BME280;20918;51.138;17.370;2023-06-19T03:46:06;100096.58;;;13.50;81.47
34696;BME280;20918;51.138;17.370;2023-06-19T03:49:06;100099.20;;;13.81;80.95
34696;BME280;20918;51.138;17.370;2023-06-19T03:52:09;100093.48;;;14.12;80.37
34696;BME280;20918;51.138;17.370;2023-06-19T03:55:09;100086.05;;;14.44;79.96
34696;BME280;20918;51.138;17.370;2023-06-19T03:58:10;100084.29;;;14.78;79.53
34696;BME280;20918;51.138;17.370;2023-06-19T04:01:11;100086.46;;;15.10;78.98
34696;BME280;20918;51.138;17.370;2023-06-19T04:04:11;100084.02;;;15.39;78.68
34696;BME280;20918;51.138;17.370;2023-06-19T04:07:12;100090.44;;;15.80;78.48
34696;BME280;20918;51.138;17.370;2023-06-19T04:10:15;100095.36;;;16.30;78.08
34696;BME280;20918;51.138;17.370;2023-06-19T04:13:15;100093.36;;;16.73;77.54
34696;BME280;20918;51.138;17.370;2023-06-19T04:16:16;100095.79;;;17.12;76.52
34696;BME280;20918;51.138;17.370;2023-06-19T04:19:16;100095.45;;;17.40;75.76
34696;BME280;20918;51.138;17.370;2023-06-19T04:22:17;100093.21;;;17.64;75.26
34696;BME280;20918;51.138;17.370;2023-06-19T04:25:17;100094.89;;;17.98;75.02
34696;BME280;20918;51.138;17.370;2023-06-19T04:28:18;100102.67;;;18.26;74.28
34696;BME280;20918;51.138;17.370;2023-06-19T04:31:19;100107.81;;;18.35;73.71
34696;BME280;20918;51.138;17.370;2023-06-19T04:34:19;100106.27;;;18.36;73.35
34696;BME280;20918;51.138;17.370;2023-06-19T04:37:21;100101.55;;;18.59;73.35
34696;BME280;20918;51.138;17.370;2023-06-19T04:40:21;100099.95;;;18.90;72.97
34696;BME280;20918;51.138;17.370;2023-06-19T04:43:21;100098.83;;;19.13;72.30
34696;BME280;20918;51.138;17.370;2023-06-19T04:46:24;100101.81;;;19.54;72.45
34696;BME280;20918;51.138;17.370;2023-06-19T04:49:25;100104.00;;;20.00;71.92
34696;BME280;20918;51.138;17.370;2023-06-19T04:52:25;100107.31;;;20.41;71.10
34696;BME280;20918;51.138;17.370;2023-06-19T04:55:26;100104.32;;;20.40;70.48
34696;BME280;20918;51.138;17.370;2023-06-19T04:58:26;100104.63;;;20.28;69.99
34696;BME280;20918;51.138;17.370;2023-06-19T05:01:27;100102.38;;;19.88;69.40
34696;BME280;20918;51.138;17.370;2023-06-19T05:04:28;100105.77;;;19.55;69.71
34696;BME280;20918;51.138;17.370;2023-06-19T05:07:32;100109.21;;;19.37;70.09
34696;BME280;20918;51.138;17.370;2023-06-19T05:10:33;100111.20;;;19.31;70.43
34696;BME280;20918;51.138;17.370;2023-06-19T05:13:33;100109.65;;;19.27;70.59
34696;BME280;20918;51.138;17.370;2023-06-19T05:16:34;100117.00;;;19.21;70.36
34696;BME280;20918;51.138;17.370;2023-06-19T05:19:35;100117.82;;;19.10;70.39
34696;BME280;20918;51.138;17.370;2023-06-19T05:22:35;100114.48;;;18.91;70.52
34696;BME280;20918;51.138;17.370;2023-06-19T05:25:36;100109.74;;;18.76;70.88
34696;BME280;20918;51.138;17.370;2023-06-19T05:28:37;100114.96;;;18.72;71.62
34696;BME280;20918;51.138;17.370;2023-06-19T05:31:37;100112.20;;;18.84;72.02
34696;BME280;20918;51.138;17.370;2023-06-19T05:34:38;100116.75;;;18.96;71.90
34696;BME280;20918;51.138;17.370;2023-06-19T05:37:38;100122.08;;;19.15;72.04
34696;BME280;20918;51.138;17.370;2023-06-19T05:40:39;100125.77;;;19.34;71.92
34696;BME280;20918;51.138;17.370;2023-06-19T05:43:40;100123.19;;;19.42;71.55
34696;BME280;20918;51.138;17.370;2023-06-19T05:46:40;100124.98;;;19.40;71.56
34696;BME280;20918;51.138;17.370;2023-06-19T05:49:41;100129.94;;;19.48;71.69
34696;BME280;20918;51.138;17.370;2023-06-19T05:52:41;100129.83;;;19.66;71.76
34696;BME280;20918;51.138;17.370;2023-06-19T05:55:43;100134.69;;;19.82;71.51
34696;BME280;20918;51.138;17.370;2023-06-19T05:58:43;100133.15;;;19.98;71.27
34696;BME280;20918;51.138;17.370;2023-06-19T06:01:44;100136.58;;;20.14;70.83
34696;BME280;20918;51.138;17.370;2023-06-19T06:04:45;100143.70;;;20.26;70.44
34696;BME280;20918;51.138;17.370;2023-06-19T06:07:45;100143.12;;;20.46;70.03
34696;BME280;20918;51.138;17.370;2023-06-19T06:10:45;100144.66;;;20.80;70.13
34696;BME280;20918;51.138;17.370;2023-06-19T06:13:46;100143.79;;;21.21;69.55
34696;BME280;20918;51.138;17.370;2023-06-19T06:16:47;100146.00;;;21.74;69.20
34696;BME280;20918;51.138;17.370;2023-06-19T06:19:47;100145.70;;;22.14;68.17
34696;BME280;20918;51.138;17.370;2023-06-19T06:22:48;100148.56;;;22.63;67.88
34696;BME280;20918;51.138;17.370;2023-06-19T06:25:49;100155.30;;;23.23;66.93
34696;BME280;20918;51.138;17.370;2023-06-19T06:28:49;100156.38;;;23.55;65.35
34696;BME280;20918;51.138;17.370;2023-06-19T06:31:50;100161.04;;;23.88;64.59
34696;BME280;20918;51.138;17.370;2023-06-19T06:34:52;100162.16;;;24.18;63.86
34696;BME280;20918;51.138;17.370;2023-06-19T06:37:53;100163.20;;;24.49;62.99
34696;BME280;20918;51.138;17.370;2023-06-19T06:40:54;100162.52;;;24.85;62.46
34696;BME280;20918;51.138;17.370;2023-06-19T06:43:54;100166.85;;;25.14;61.23
34696;BME280;20918;51.138;17.370;2023-06-19T06:46:55;100165.04;;;25.35;59.73
34696;BME280;20918;51.138;17.370;2023-06-19T06:49:56;100167.08;;;25.65;59.58
34696;BME280;20918;51.138;17.370;2023-06-19T06:52:56;100165.78;;;26.09;58.94
34696;BME280;20918;51.138;17.370;2023-06-19T06:55:59;100165.77;;;26.67;58.06
34696;BME280;20918;51.138;17.370;2023-06-19T06:59:00;100167.81;;;27.06;57.08
34696;BME280;20918;51.138;17.370;2023-06-19T07:02:00;100166.05;;;27.27;55.59
34696;BME280;20918;51.138;17.370;2023-06-19T07:05:01;100166.02;;;27.09;54.30
34696;BME280;20918;51.138;17.370;2023-06-19T07:08:01;100165.77;;;26.92;54.58
34696;BME280;20918;51.138;17.370;2023-06-19T07:11:02;100166.09;;;26.85;54.15
34696;BME280;20918;51.138;17.370;2023-06-19T07:14:03;100165.06;;;26.59;53.46
34696;BME280;20918;51.138;17.370;2023-06-19T07:17:03;100166.50;;;26.43;53.66
34696;BME280;20918;51.138;17.370;2023-06-19T07:20:07;100174.97;;;26.35;53.39
34696;BME280;20918;51.138;17.370;2023-06-19T07:23:08;100168.98;;;26.24;53.48
34696;BME280;20918;51.138;17.370;2023-06-19T07:26:09;100173.86;;;26.21;53.17
34696;BME280;20918;51.138;17.370;2023-06-19T07:29:10;100174.90;;;26.21;53.61
34696;BME280;20918;51.138;17.370;2023-06-19T07:32:10;100176.99;;;26.11;53.68
34696;BME280;20918;51.138;17.370;2023-06-19T07:35:11;100180.13;;;26.01;53.70
34696;BME280;20918;51.138;17.370;2023-06-19T07:38:11;100178.11;;;26.03;53.71
34696;BME280;20918;51.138;17.370;2023-06-19T07:41:12;100179.06;;;26.12;53.38
34696;BME280;20918;51.138;17.370;2023-06-19T07:44:12;100179.50;;;26.10;52.92
34696;BME280;20918;51.138;17.370;2023-06-19T07:47:16;100179.93;;;26.10;52.78
34696;BME280;20918;51.138;17.370;2023-06-19T07:50:18;100179.78;;;25.97;51.48
34696;BME280;20918;51.138;17.370;2023-06-19T07:53:18;100185.96;;;25.81;51.65
34696;BME280;20918;51.138;17.370;2023-06-19T07:56:19;100185.88;;;25.75;52.06
34696;BME280;20918;51.138;17.370;2023-06-19T07:59:19;100184.34;;;25.83;52.08
34696;BME280;20918;51.138;17.370;2023-06-19T08:02:20;100183.54;;;25.95;51.98
34696;BME280;20918;51.138;17.370;2023-06-19T08:05:20;100183.44;;;26.22;51.99
34696;BME280;20918;51.138;17.370;2023-06-19T08:08:21;100182.25;;;26.60;51.99
34696;BME280;20918;51.138;17.370;2023-06-19T08:11:21;100177.60;;;27.03;51.34
34696;BME280;20918;51.138;17.370;2023-06-19T08:14:22;100173.14;;;27.24;50.68
34696;BME280;20918;51.138;17.370;2023-06-19T08:17:22;100168.46;;;27.19;50.59
34696;BME280;20918;51.138;17.370;2023-06-19T08:20:23;100164.74;;;27.23;50.63
34696;BME280;20918;51.138;17.370;2023-06-19T08:23:23;100168.73;;;27.21;50.50
34696;BME280;20918;51.138;17.370;2023-06-19T08:26:24;100169.96;;;27.31;49.61
34696;BME280;20918;51.138;17.370;2023-06-19T08:29:24;100166.66;;;27.13;48.69
34696;BME280;20918;51.138;17.370;2023-06-19T08:32:24;100165.26;;;27.03;48.80
34696;BME280;20918;51.138;17.370;2023-06-19T08:35:25;100159.33;;;26.93;48.85
34696;BME280;20918;51.138;17.370;2023-06-19T08:38:26;100159.36;;;27.10;47.98
34696;BME280;20918;51.138;17.370;2023-06-19T08:41:26;100159.30;;;27.24;47.70
34696;BME280;20918;51.138;17.370;2023-06-19T08:44:27;100158.05;;;27.42;47.39
34696;BME280;20918;51.138;17.370;2023-06-19T08:47:33;100152.55;;;27.69;47.21
34696;BME280;20918;51.138;17.370;2023-06-19T08:50:34;100157.40;;;27.95;46.78
34696;BME280;20918;51.138;17.370;2023-06-19T08:53:36;100155.20;;;28.09;45.74
34696;BME280;20918;51.138;17.370;2023-06-19T08:56:39;100156.33;;;28.21;45.10
34696;BME280;20918;51.138;17.370;2023-06-19T08:59:40;100150.71;;;28.38;44.49
34696;BME280;20918;51.138;17.370;2023-06-19T09:02:42;100149.52;;;28.45;44.28
34696;BME280;20918;51.138;17.370;2023-06-19T09:05:42;100148.47;;;28.36;43.89
34696;BME280;20918;51.138;17.370;2023-06-19T09:08:59;100147.58;;;28.76;43.69
34696;BME280;20918;51.138;17.370;2023-06-19T09:12:03;100141.98;;;29.01;42.64
34696;BME280;20918;51.138;17.370;2023-06-19T09:15:15;100140.39;;;29.15;42.08
34696;BME280;20918;51.138;17.370;2023-06-19T09:18:16;100143.48;;;29.06;41.72
34696;BME280;20918;51.138;17.370;2023-06-19T09:21:17;100143.84;;;29.00;41.69
34696;BME280;20918;51.138;17.370;2023-06-19T09:24:22;100140.95;;;29.06;41.08
34696;BME280;20918;51.138;17.370;2023-06-19T09:27:24;100137.34;;;29.19;40.95
34696;BME280;20918;51.138;17.370;2023-06-19T09:30:25;100139.80;;;29.52;41.49
34696;BME280;20918;51.138;17.370;2023-06-19T09:33:26;100132.64;;;30.02;40.95
34696;BME280;20918;51.138;17.370;2023-06-19T09:36:27;100133.86;;;30.38;39.72
34696;BME280;20918;51.138;17.370;2023-06-19T09:39:29;100129.48;;;30.55;39.18
34696;BME280;20918;51.138;17.370;2023-06-19T09:42:33;100126.77;;;30.80;39.10
34696;BME280;20918;51.138;17.370;2023-06-19T09:45:34;100128.64;;;30.86;37.65
34696;BME280;20918;51.138;17.370;2023-06-19T09:48:36;100128.86;;;30.59;37.21
34696;BME280;20918;51.138;17.370;2023-06-19T09:51:41;100127.68;;;30.45;36.78
34696;BME280;20918;51.138;17.370;2023-06-19T09:54:43;100129.17;;;30.41;36.48
34696;BME280;20918;51.138;17.370;2023-06-19T09:57:46;100126.03;;;30.49;36.55
34696;BME280;20918;51.138;17.370;2023-06-19T10:00:48;100121.46;;;30.73;36.90
34696;BME280;20918;51.138;17.370;2023-06-19T10:03:51;100125.33;;;30.84;37.19
34696;BME280;20918;51.138;17.370;2023-06-19T10:07:01;100122.75;;;30.81;36.81
34696;BME280;20918;51.138;17.370;2023-06-19T10:10:03;100116.73;;;31.04;36.48
34696;BME280;20918;51.138;17.370;2023-06-19T10:13:14;100109.48;;;31.14;36.39
34696;BME280;20918;51.138;17.370;2023-06-19T10:16:22;100118.21;;;31.08;36.01
34696;BME280;20918;51.138;17.370;2023-06-19T10:19:22;100117.30;;;31.13;35.83
34696;BME280;20918;51.138;17.370;2023-06-19T10:22:24;100112.91;;;31.24;36.03
34696;BME280;20918;51.138;17.370;2023-06-19T10:25:34;100111.72;;;31.31;35.51
34696;BME280;20918;51.138;17.370;2023-06-19T10:28:35;100109.33;;;31.30;34.52
34696;BME280;20918;51.138;17.370;2023-06-19T10:31:35;100110.25;;;31.21;35.25
34696;BME280;20918;51.138;17.370;2023-06-19T10:34:36;100105.23;;;30.96;34.98
34696;BME280;20918;51.138;17.370;2023-06-19T10:37:37;100103.05;;;30.87;35.16
34696;BME280;20918;51.138;17.370;2023-06-19T10:40:37;100106.53;;;30.81;34.91
34696;BME280;20918;51.138;17.370;2023-06-19T10:43:38;100101.34;;;30.67;34.02
34696;BME280;20918;51.138;17.370;2023-06-19T10:46:38;100099.36;;;30.33;34.34
34696;BME280;20918;51.138;17.370;2023-06-19T10:49:41;100094.62;;;30.35;34.43
34696;BME280;20918;51.138;17.370;2023-06-19T10:52:42;100096.55;;;30.09;33.79
34696;BME280;20918;51.138;17.370;2023-06-19T10:55:43;100094.49;;;30.00;34.72
34696;BME280;20918;51.138;17.370;2023-06-19T10:58:43;100095.73;;;29.98;34.92
34696;BME280;20918;51.138;17.370;2023-06-19T11:01:47;100097.80;;;30.05;33.95
34696;BME280;20918;51.138;17.370;2023-06-19T11:04:48;100094.27;;;30.11;34.37
34696;BME280;20918;51.138;17.370;2023-06-19T11:07:52;100094.58;;;30.27;34.67
34696;BME280;20918;51.138;17.370;2023-06-19T11:10:53;100095.40;;;30.59;34.82
34696;BME280;20918;51.138;17.370;2023-06-19T11:13:55;100098.89;;;30.73;33.66
34696;BME280;20918;51.138;17.370;2023-06-19T11:16:55;100096.77;;;30.72;33.54
34696;BME280;20918;51.138;17.370;2023-06-19T11:19:56;100095.01;;;30.70;33.42
34696;BME280;20918;51.138;17.370;2023-06-19T11:23:00;100096.83;;;30.69;33.40
34696;BME280;20918;51.138;17.370;2023-06-19T11:26:02;100090.70;;;30.53;33.69
34696;BME280;20918;51.138;17.370;2023-06-19T11:29:12;100092.24;;;30.55;33.61
34696;BME280;20918;51.138;17.370;2023-06-19T11:32:14;100095.27;;;30.67;33.54
34696;BME280;20918;51.138;17.370;2023-06-19T11:35:15;100088.04;;;30.70;33.40
34696;BME280;20918;51.138;17.370;2023-06-19T11:38:20;100086.16;;;30.71;33.57
34696;BME280;20918;51.138;17.370;2023-06-19T11:41:28;100083.08;;;30.72;32.56
34696;BME280;20918;51.138;17.370;2023-06-19T11:44:28;100081.27;;;30.57;32.60
34696;BME280;20918;51.138;17.370;2023-06-19T11:47:32;100080.05;;;30.35;32.76
34696;BME280;20918;51.138;17.370;2023-06-19T11:50:33;100079.54;;;30.22;32.79
34696;BME280;20918;51.138;17.370;2023-06-19T11:53:34;100079.64;;;30.15;33.02
34696;BME280;20918;51.138;17.370;2023-06-19T11:56:35;100084.30;;;30.00;33.14
34696;BME280;20918;51.138;17.370;2023-06-19T11:59:35;100082.69;;;30.06;32.82
34696;BME280;20918;51.138;17.370;2023-06-19T12:02:36;100086.36;;;30.02;32.98
34696;BME280;20918;51.138;17.370;2023-06-19T12:05:37;100083.64;;;30.05;33.16
34696;BME280;20918;51.138;17.370;2023-06-19T12:08:37;100082.67;;;30.22;33.37
34696;BME280;20918;51.138;17.370;2023-06-19T12:11:38;100074.79;;;30.32;33.22
34696;BME280;20918;51.138;17.370;2023-06-19T12:14:38;100075.52;;;30.41;32.69
34696;BME280;20918;51.138;17.370;2023-06-19T12:17:39;100076.65;;;30.28;32.71
34696;BME280;20918;51.138;17.370;2023-06-19T12:20:40;100073.09;;;30.03;32.83
34696;BME280;20918;51.138;17.370;2023-06-19T12:23:40;100070.23;;;29.95;32.47
34696;BME280;20918;51.138;17.370;2023-06-19T12:26:41;100066.73;;;29.64;32.63
34696;BME280;20918;51.138;17.370;2023-06-19T12:29:42;100068.69;;;29.72;32.88
34696;BME280;20918;51.138;17.370;2023-06-19T12:32:42;100069.30;;;29.91;34.05
34696;BME280;20918;51.138;17.370;2023-06-19T12:35:43;100072.55;;;29.97;33.48
34696;BME280;20918;51.138;17.370;2023-06-19T12:38:43;100069.52;;;29.99;33.03
34696;BME280;20918;51.138;17.370;2023-06-19T12:41:44;100068.14;;;29.99;33.21
34696;BME280;20918;51.138;17.370;2023-06-19T12:44:44;100060.70;;;30.23;33.94
34696;BME280;20918;51.138;17.370;2023-06-19T12:47:45;100062.98;;;30.35;33.35
34696;BME280;20918;51.138;17.370;2023-06-19T12:50:45;100061.40;;;30.37;32.67
34696;BME280;20918;51.138;17.370;2023-06-19T12:53:45;100058.64;;;30.33;31.65
34696;BME280;20918;51.138;17.370;2023-06-19T12:56:46;100054.65;;;30.20;31.45
34696;BME280;20918;51.138;17.370;2023-06-19T12:59:46;100050.92;;;30.23;31.28
34696;BME280;20918;51.138;17.370;2023-06-19T13:02:47;100048.64;;;30.22;31.62
34696;BME280;20918;51.138;17.370;2023-06-19T13:05:48;100047.27;;;30.14;31.54
34696;BME280;20918;51.138;17.370;2023-06-19T13:08:48;100044.39;;;30.12;32.13
34696;BME280;20918;51.138;17.370;2023-06-19T13:11:48;100043.52;;;30.21;32.28
34696;BME280;20918;51.138;17.370;2023-06-19T13:14:50;100043.15;;;30.38;32.86
34696;BME280;20918;51.138;17.370;2023-06-19T13:17:50;100044.07;;;30.55;32.82
34696;BME280;20918;51.138;17.370;2023-06-19T13:20:51;100044.80;;;30.72;32.65
34696;BME280;20918;51.138;17.370;2023-06-19T13:23:51;100047.28;;;30.86;32.28
34696;BME280;20918;51.138;17.370;2023-06-19T13:26:51;100043.92;;;30.98;31.90
34696;BME280;20918;51.138;17.370;2023-06-19T13:29:53;100039.78;;;30.81;31.55
34696;BME280;20918;51.138;17.370;2023-06-19T13:32:54;100038.77;;;30.72;32.03
34696;BME280;20918;51.138;17.370;2023-06-19T13:35:54;100043.41;;;30.64;31.60
34696;BME280;20918;51.138;17.370;2023-06-19T13:38:55;100039.63;;;30.44;31.66
34696;BME280;20918;51.138;17.370;2023-06-19T13:41:55;100040.43;;;30.31;31.53
34696;BME280;20918;51.138;17.370;2023-06-19T13:44:56;100034.86;;;30.21;31.71
34696;BME280;20918;51.138;17.370;2023-06-19T13:47:57;100034.79;;;29.90;31.62
34696;BME280;20918;51.138;17.370;2023-06-19T13:50:59;100037.89;;;29.77;32.03
34696;BME280;20918;51.138;17.370;2023-06-19T13:54:00;100037.78;;;29.77;32.18
34696;BME280;20918;51.138;17.370;2023-06-19T13:57:03;100035.42;;;29.77;32.27
34696;BME280;20918;51.138;17.370;2023-06-19T14:00:04;100035.52;;;29.86;32.10
34696;BME280;20918;51.138;17.370;2023-06-19T14:03:13;100035.14;;;30.03;31.98
34696;BME280;20918;51.138;17.370;2023-06-19T14:06:13;100034.66;;;29.99;31.96
34696;BME280;20918;51.138;17.370;2023-06-19T14:09:14;100032.40;;;29.89;31.40
34696;BME280;20918;51.138;17.370;2023-06-19T14:12:14;100031.38;;;29.82;31.39
34696;BME280;20918;51.138;17.370;2023-06-19T14:15:15;100030.64;;;29.79;31.66
34696;BME280;20918;51.138;17.370;2023-06-19T14:18:15;100029.30;;;29.87;32.47
34696;BME280;20918;51.138;17.370;2023-06-19T14:21:16;100022.96;;;29.98;32.73
34696;BME280;20918;51.138;17.370;2023-06-19T14:24:16;100023.45;;;30.02;32.51
34696;BME280;20918;51.138;17.370;2023-06-19T14:27:17;100022.13;;;30.02;33.02
34696;BME280;20918;51.138;17.370;2023-06-19T14:30:18;100022.86;;;30.07;32.51
34696;BME280;20918;51.138;17.370;2023-06-19T14:33:19;100026.57;;;29.95;32.46
34696;BME280;20918;51.138;17.370;2023-06-19T14:36:20;100024.85;;;29.86;32.53
34696;BME280;20918;51.138;17.370;2023-06-19T14:39:20;100029.15;;;29.84;33.11
34696;BME280;20918;51.138;17.370;2023-06-19T14:42:21;100030.29;;;29.87;32.97
34696;BME280;20918;51.138;17.370;2023-06-19T14:45:21;100030.95;;;29.94;32.47
34696;BME280;20918;51.138;17.370;2023-06-19T14:48:22;100035.03;;;29.85;32.22
34696;BME280;20918;51.138;17.370;2023-06-19T14:51:22;100036.82;;;29.68;32.23
34696;BME280;20918;51.138;17.370;2023-06-19T14:54:23;100032.53;;;29.53;32.24
34696;BME280;20918;51.138;17.370;2023-06-19T14:57:24;100035.59;;;29.41;33.04
34696;BME280;20918;51.138;17.370;2023-06-19T15:00:25;100034.64;;;29.31;32.67
34696;BME280;20918;51.138;17.370;2023-06-19T15:03:25;100038.41;;;29.16;32.71
34696;BME280;20918;51.138;17.370;2023-06-19T15:06:26;100035.45;;;29.09;33.09
34696;BME280;20918;51.138;17.370;2023-06-19T15:09:26;100037.40;;;29.06;33.17
34696;BME280;20918;51.138;17.370;2023-06-19T15:12:27;100037.70;;;29.02;33.04
34696;BME280;20918;51.138;17.370;2023-06-19T15:15:28;100039.80;;;29.06;33.42
34696;BME280;20918;51.138;17.370;2023-06-19T15:18:29;100035.65;;;29.06;33.81
34696;BME280;20918;51.138;17.370;2023-06-19T15:21:29;100031.64;;;29.03;33.85
34696;BME280;20918;51.138;17.370;2023-06-19T15:24:30;100031.98;;;29.07;34.21
34696;BME280;20918;51.138;17.370;2023-06-19T15:27:30;100030.96;;;29.06;34.24
34696;BME280;20918;51.138;17.370;2023-06-19T15:30:31;100030.31;;;28.94;34.30
34696;BME280;20918;51.138;17.370;2023-06-19T15:33:32;100029.55;;;28.74;34.75
34696;BME280;20918;51.138;17.370;2023-06-19T15:36:32;100026.27;;;28.68;34.60
34696;BME280;20918;51.138;17.370;2023-06-19T15:39:33;100030.38;;;28.66;34.48